Time,TemperatureF,DewpointF,PressureIn,WindDirection,WindDirectionDegrees,WindSpeedMPH,WindSpeedGustMPH,Humidity,HourlyPrecipIn,Conditions,Clouds,dailyrainin,SoftwareType,DateUTC
2013-01-10 00:01:00,32.1,30.3,29.85,NNW,335,3.7,7.8,93,0.00,,,0.00,WSDL version 420,2013-01-10 05:01:00,
2013-01-10 00:15:00,32.0,31.3,29.85,NNE,14,3.7,6.3,98,0.00,,,0.00,WSDL version 420,2013-01-10 05:15:00,
2013-01-10 00:30:00,31.8,31.6,29.85,WNW,283,4.0,6.7,99,0.00,,,0.00,WSDL version 420,2013-01-10 05:30:00,
2013-01-10 00:45:00,31.7,31.7,29.88,NW,319,5.0,9.8,100,0.00,,,0.00,WSDL version 420,2013-01-10 05:45:00,
2013-01-10 01:00:00,31.7,31.7,29.88,West,262,3.4,16.1,100,0.00,,,0.00,WSDL version 420,2013-01-10 06:00:00,
2013-01-10 01:15:00,31.7,31.2,29.91,WNW,287,6.8,10.1,98,0.00,,,0.00,WSDL version 420,2013-01-10 06:15:00,
2013-01-10 01:30:00,31.5,30.8,29.91,WNW,300,6.2,12.5,97,0.00,,,0.00,WSDL version 420,2013-01-10 06:30:00,
2013-01-10 01:45:00,31.5,30.5,29.88,NW,311,4.6,13.2,96,0.00,,,0.00,WSDL version 420,2013-01-10 06:45:00,
2013-01-10 02:00:00,31.3,30.5,29.91,NW,315,5.5,11.2,97,0.00,,,0.00,WSDL version 420,2013-01-10 07:00:00,
2013-01-10 02:15:00,31.2,30.5,29.94,SW,236,4.8,8.7,97,0.00,,,0.00,WSDL version 420,2013-01-10 07:15:00,
2013-01-10 02:30:00,31.4,30.1,29.97,NW,318,5.5,12.5,94,0.00,,,0.00,WSDL version 420,2013-01-10 07:30:00,
2013-01-10 02:45:00,31.5,29.7,29.94,NW,323,6.3,16.3,91,0.00,,,0.00,WSDL version 420,2013-01-10 07:45:00,
2013-01-10 03:00:00,31.6,28.8,29.97,WNW,284,11.2,22.6,87,0.00,,,0.00,WSDL version 420,2013-01-10 08:00:00,
2013-01-10 03:15:00,31.7,28.1,30.00,WNW,289,3.6,11.0,84,0.00,,,0.00,WSDL version 420,2013-01-10 08:15:00,
2013-01-10 03:31:00,31.9,26.7,30.00,West,278,10.9,21.3,78,0.00,,,0.00,WSDL version 420,2013-01-10 08:31:00,
2013-01-10 03:46:00,31.9,26.3,30.03,WNW,286,11.0,16.6,78,0.00,,,0.00,WSDL version 420,2013-01-10 08:46:00,
2013-01-10 04:01:00,31.9,26.0,30.03,West,279,11.0,18.8,76,0.00,,,0.00,WSDL version 420,2013-01-10 09:01:00,
2013-01-10 04:16:00,31.7,24.6,30.06,WNW,289,6.9,17.0,72,0.00,,,0.00,WSDL version 420,2013-01-10 09:16:00,
2013-01-10 04:30:00,31.7,24.3,30.06,WNW,302,9.4,18.1,70,0.00,,,0.00,WSDL version 420,2013-01-10 09:30:00,
2013-01-10 04:45:00,31.8,23.7,30.09,WNW,293,14.5,23.7,69,0.00,,,0.00,WSDL version 420,2013-01-10 09:45:00,
2013-01-10 05:00:00,31.8,23.0,30.06,WNW,299,8.5,29.3,66,-99.99,,,-99.99,WSDL version 420,2013-01-10 10:00:00,
2013-01-10 05:15:00,31.7,22.8,30.09,ENE,68,14.7,27.1,66,0.00,,,0.00,WSDL version 420,2013-01-10 10:15:00,
2013-01-10 05:30:00,31.5,23.4,30.09,WSW,255,8.2,22.1,69,0.00,,,0.00,WSDL version 420,2013-01-10 10:30:00,
2013-01-10 05:45:00,31.7,23.5,30.09,WNW,293,13.6,23.7,68,0.00,,,0.00,WSDL version 420,2013-01-10 10:45:00,
2013-01-10 06:00:00,31.7,23.0,30.09,West,276,10.9,19.5,67,0.00,,,0.00,WSDL version 420,2013-01-10 11:00:00,
2013-01-10 06:15:00,31.9,23.1,30.12,West,276,9.3,19.5,67,0.00,,,0.00,WSDL version 420,2013-01-10 11:15:00,
2013-01-10 06:30:00,31.9,23.3,30.09,NW,307,10.5,18.1,67,0.00,,,0.00,WSDL version 420,2013-01-10 11:30:00,
2013-01-10 06:45:00,31.9,23.3,30.12,WNW,299,13.0,23.9,67,0.00,,,0.00,WSDL version 420,2013-01-10 11:45:00,
2013-01-10 07:00:00,31.9,23.1,30.12,West,280,14.9,26.4,67,0.00,,,0.00,WSDL version 420,2013-01-10 12:00:00,
2013-01-10 07:15:00,31.9,23.3,30.15,WNW,296,10.7,19.7,67,0.00,,,0.00,WSDL version 420,2013-01-10 12:15:00,
2013-01-10 07:30:00,31.9,23.1,30.15,WNW,290,8.9,19.7,65,0.00,,,0.00,WSDL version 420,2013-01-10 12:30:00,
2013-01-10 07:45:00,31.8,23.1,30.12,West,267,7.6,18.6,67,0.00,,,0.00,WSDL version 420,2013-01-10 12:45:00,
2013-01-10 08:00:00,31.7,23.1,30.15,West,266,10.9,22.1,67,0.00,,,0.00,WSDL version 420,2013-01-10 13:00:00,
2013-01-10 08:16:00,31.7,23.4,30.18,West,276,12.5,23.3,68,0.00,,,0.00,WSDL version 420,2013-01-10 13:16:00,
2013-01-10 08:31:00,31.9,23.0,30.18,WNW,285,10.1,23.3,66,0.00,,,0.00,WSDL version 420,2013-01-10 13:31:00,
2013-01-10 10:37:00,32.6,21.8,30.24,WNW,286,9.1,13.4,64,0.00,,,0.00,WSDL version 420,2013-01-10 15:37:00,
2013-01-10 10:52:00,32.9,21.9,30.24,WNW,297,7.7,15.2,63,0.00,,,0.00,WSDL version 420,2013-01-10 15:52:00,
2013-01-10 11:07:00,33.6,21.0,30.24,West,277,9.8,19.7,60,0.00,,,0.00,WSDL version 420,2013-01-10 16:07:00,
2013-01-10 11:22:00,34.8,21.0,30.24,WNW,290,9.2,19.0,56,0.00,,,0.00,WSDL version 420,2013-01-10 16:22:00,
2013-01-10 11:37:00,33.6,20.2,30.24,WNW,286,13.7,23.5,57,0.00,,,0.00,WSDL version 420,2013-01-10 16:37:00,
2013-01-10 11:52:00,33.4,20.4,30.24,West,264,9.0,17.7,59,0.00,,,0.00,WSDL version 420,2013-01-10 16:52:00,
2013-01-10 12:07:00,33.0,20.3,30.24,WNW,293,11.8,19.5,59,0.00,,,0.00,WSDL version 420,2013-01-10 17:07:00,
2013-01-10 12:22:00,33.0,20.2,30.27,West,276,10.0,22.8,59,0.00,,,0.00,WSDL version 420,2013-01-10 17:22:00,
2013-01-10 12:37:00,33.2,20.0,30.27,NW,325,9.2,17.0,58,0.00,,,0.00,WSDL version 420,2013-01-10 17:37:00,
2013-01-10 12:51:00,33.9,20.3,30.27,West,276,9.7,15.2,57,0.00,,,0.00,WSDL version 420,2013-01-10 17:51:00,
2013-01-10 13:06:00,34.5,20.2,30.27,WNW,296,12.5,22.1,55,0.00,,,0.00,WSDL version 420,2013-01-10 18:06:00,
2013-01-10 13:21:00,34.8,20.0,30.27,WNW,296,11.4,17.7,54,0.00,,,0.00,WSDL version 420,2013-01-10 18:21:00,
2013-01-10 13:36:00,33.6,19.4,30.27,WNW,284,12.4,26.8,56,0.00,,,0.00,WSDL version 420,2013-01-10 18:36:00,
2013-01-10 13:51:00,33.7,19.4,30.27,WNW,283,9.7,19.2,56,0.00,,,0.00,WSDL version 420,2013-01-10 18:51:00,
2013-01-10 14:06:00,34.0,20.0,30.30,NW,305,10.4,23.5,57,0.00,,,0.00,WSDL version 420,2013-01-10 19:06:00,
2013-01-10 14:21:00,34.2,20.2,30.30,WNW,300,12.7,23.0,56,0.00,,,0.00,WSDL version 420,2013-01-10 19:21:00,
2013-01-10 14:37:00,33.8,19.6,30.33,WNW,302,10.9,19.7,56,0.00,,,0.00,WSDL version 420,2013-01-10 19:37:00,
2013-01-10 14:52:00,32.9,18.9,30.33,West,276,10.9,22.1,56,0.00,,,0.00,WSDL version 420,2013-01-10 19:52:00,
2013-01-10 15:07:00,32.7,19.5,30.33,West,281,5.7,12.1,58,0.00,,,0.00,WSDL version 420,2013-01-10 20:07:00,
2013-01-10 15:22:00,32.4,19.6,30.33,West,270,8.2,13.2,58,0.00,,,0.00,WSDL version 420,2013-01-10 20:22:00,
2013-01-10 15:37:00,32.1,19.2,30.33,West,278,7.5,20.1,59,0.00,,,0.00,WSDL version 420,2013-01-10 20:37:00,
2013-01-10 15:52:00,31.8,20.8,30.36,WNW,293,10.8,17.2,60,0.00,,,0.00,WSDL version 420,2013-01-10 20:52:00,
2013-01-10 16:07:00,31.5,21.0,30.36,NW,307,9.6,23.3,61,0.00,,,0.00,WSDL version 420,2013-01-10 21:07:00,
2013-01-10 16:22:00,31.2,21.1,30.36,NW,311,4.2,12.5,62,0.00,,,0.00,WSDL version 420,2013-01-10 21:22:00,
2013-01-10 16:37:00,31.0,21.1,30.39,NNW,334,1.9,9.6,63,0.00,,,0.00,WSDL version 420,2013-01-10 21:37:00,
2013-01-10 16:52:00,30.8,21.3,30.39,NW,312,6.3,11.4,64,0.00,,,0.00,WSDL version 420,2013-01-10 21:52:00,
2013-01-10 17:07:00,30.6,21.3,30.39,NW,306,4.5,12.8,64,0.00,,,0.00,WSDL version 420,2013-01-10 22:07:00,
2013-01-10 17:22:00,30.5,21.3,30.39,WNW,295,7.2,10.7,65,0.00,,,0.00,WSDL version 420,2013-01-10 22:22:00,
2013-01-10 17:37:00,30.3,21.0,30.39,NW,321,5.6,7.6,64,0.00,,,0.00,WSDL version 420,2013-01-10 22:37:00,
2013-01-10 17:52:00,30.3,20.6,30.39,West,275,8.3,9.8,63,0.00,,,0.00,WSDL version 420,2013-01-10 22:52:00,
2013-01-10 18:07:00,30.2,20.6,30.42,WNW,300,3.8,8.5,64,0.00,,,0.00,WSDL version 420,2013-01-10 23:07:00,
2013-01-10 18:22:00,30.1,19.9,30.42,West,278,6.3,10.7,62,0.00,,,0.00,WSDL version 420,2013-01-10 23:22:00,
2013-01-10 18:37:00,30.1,19.9,30.39,WNW,285,11.3,17.0,62,0.00,,,0.00,WSDL version 420,2013-01-10 23:37:00,
2013-01-10 18:51:00,29.9,20.0,30.39,NW,310,7.2,17.2,63,0.00,,,0.00,WSDL version 420,2013-01-10 23:51:00,
2013-01-10 19:06:00,29.7,20.3,30.39,WNW,293,7.0,13.2,64,0.00,,,0.00,WSDL version 420,2013-01-11 00:06:00,
2013-01-10 19:23:00,29.7,20.3,30.39,NNW,329,3.7,8.1,64,0.00,,,0.00,WSDL version 420,2013-01-11 00:23:00,
2013-01-10 19:38:00,29.6,20.4,30.39,NW,326,5.7,8.5,65,0.00,,,0.00,WSDL version 420,2013-01-11 00:38:00,
2013-01-10 19:53:00,29.5,20.6,30.39,WNW,290,2.7,14.8,66,0.00,,,0.00,WSDL version 420,2013-01-11 00:53:00,
2013-01-10 20:08:00,29.4,20.9,30.39,NW,308,6.2,10.7,67,0.00,,,0.00,WSDL version 420,2013-01-11 01:08:00,
2013-01-10 20:23:00,29.0,20.5,30.39,North,349,4.5,11.0,67,0.00,,,0.00,WSDL version 420,2013-01-11 01:23:00,
2013-01-10 20:39:00,28.6,19.8,30.39,NW,326,4.9,7.2,66,0.00,,,0.00,WSDL version 420,2013-01-11 01:39:00,
2013-01-10 20:54:00,28.1,19.3,30.39,NW,312,4.5,6.3,66,-99.99,,,-99.99,WSDL version 420,2013-01-11 01:54:00,
2013-01-10 21:09:00,27.6,18.8,30.42,NNW,328,3.9,5.8,66,0.00,,,0.00,WSDL version 420,2013-01-11 02:09:00,
2013-01-10 21:24:00,26.9,18.0,30.39,NW,321,3.9,6.5,66,0.00,,,0.00,WSDL version 420,2013-01-11 02:24:00,
2013-01-10 21:39:00,26.1,17.4,30.42,West,270,1.6,2.5,66,0.00,,,0.00,WSDL version 420,2013-01-11 02:39:00,
2013-01-10 21:54:00,24.8,16.5,30.42,SSW,203,0.2,2.0,67,-99.99,,,-99.99,WSDL version 420,2013-01-11 02:54:00,
2013-01-10 22:09:00,24.3,16.5,30.45,WNW,290,2.0,3.4,69,0.00,,,0.00,WSDL version 420,2013-01-11 03:09:00,
2013-01-10 22:24:00,24.4,17.0,30.45,NW,315,3.9,4.9,70,0.00,,,0.00,WSDL version 420,2013-01-11 03:24:00,
2013-01-10 22:39:00,23.9,16.4,30.45,SSW,203,0.1,3.1,70,0.00,,,0.00,WSDL version 420,2013-01-11 03:39:00,
2013-01-10 22:54:00,23.6,16.5,30.45,SSW,203,0.0,2.0,71,0.00,,,0.00,WSDL version 420,2013-01-11 03:54:00,
2013-01-10 23:09:00,22.7,15.9,30.45,South,188,1.3,2.5,72,0.00,,,0.00,WSDL version 420,2013-01-11 04:09:00,
2013-01-10 23:24:00,22.1,15.5,30.42,SSW,203,0.6,2.2,73,0.00,,,0.00,WSDL version 420,2013-01-11 04:24:00,
2013-01-10 23:39:00,21.6,15.4,30.42,West,270,1.7,2.5,74,0.00,,,0.00,WSDL version 420,2013-01-11 04:39:00,
2013-01-10 23:54:00,21.3,15.4,30.45,South,180,0.0,2.0,75,0.00,,,0.00,WSDL version 420,2013-01-11 04:54:00,